Terminal Aerodrome Forecast
Issued by NWS

Home | Current Version | Previous Version | Text Only | Print | Product List | Glossary On
Versions: 1 2 3 4 5 6 7 8 9 10 11 12 13 14 15 16 17 18 19 20 21 22 23 24 25 26 27 28 29 30 31 32
960
FTUS41 KOKX 230831 AAA
TAFTEB
TAF AMD
KTEB 230831Z 2309/2406 VRB02KT P6SM SCT250
     FM231000 VRB02KT 4SM BR SCT006 SCT250
     FM231200 VRB02KT 2SM BR BKN006
     FM231500 20004KT 3SM BR BKN010
     FM231800 20006KT P6SM BKN035
     FM240300 VRB02KT 4SM BR BKN007=

USA.gov is the U.S. government's official web portal to all federal, state and local government web resources and services.